Time;durP1;ratioP1;P1;durP2;ratioP2;P2;SDS_P1;SDS_P2;PMS_P1;PMS_P2;Temp;Humidity;BMP_temperature;BMP_pressure;BME280_temperature;BME280_humidity;BME280_pressure;Samples;Min_cycle;Max_cycle;Signal;HPM_P1;HPM_P2
2024/02/20 00:01:40;;;;;;;;;;;;;;;18.76;31.29;101700.59;102673;1291;61321;-81
2024/02/20 00:04:10;;;;;;;;;;;;;;;18.76;31.31;101694.35;102792;1291;61410;-81
2024/02/20 00:06:38;;;;;;;;;;;;;;;18.75;31.37;101696.88;102773;1292;72283;-81
2024/02/20 00:09:04;;;;;;;;;;;;;;;18.76;31.34;101698.82;102683;1291;75367;-83
2024/02/20 00:11:29;;;;;;;;;;;;;;;18.75;31.46;101699.02;102775;1291;61335;-81
2024/02/20 00:13:56;;;;;;;;;;;;;;;18.75;31.38;101700.09;102779;1291;61405;-81
2024/02/20 00:16:24;;;;;;;;;;;;;;;18.75;31.35;101699.90;102703;1291;62581;-81
2024/02/20 00:18:56;;;;;;;;;;;;;;;18.75;31.32;101697.59;102730;1290;75549;-81
2024/02/20 00:21:21;;;;;;;;;;;;;;;18.75;31.38;101698.50;102825;1291;63047;-81
2024/02/20 00:23:51;;;;;;;;;;;;;;;18.75;31.48;101699.57;102514;1294;61798;-81
2024/02/20 00:26:17;;;;;;;;;;;;;;;18.75;31.29;101701.17;102607;1294;71687;-80
2024/02/20 00:28:42;;;;;;;;;;;;;;;18.75;31.40;101703.30;102720;1294;62234;-81
2024/02/20 00:31:08;;;;;;;;;;;;;;;18.75;31.38;101699.05;102527;1294;61498;-80
2024/02/20 00:33:34;;;;;;;;;;;;;;;18.74;31.37;101696.39;102609;1295;62552;-81
2024/02/20 00:36:03;;;;;;;;;;;;;;;18.74;31.33;101697.66;102620;1294;62203;-81
2024/02/20 00:38:29;;;;;;;;;;;;;;;18.74;31.35;101700.70;102622;1295;61834;-80
2024/02/20 00:40:55;;;;;;;;;;;;;;;18.74;31.35;101701.77;102626;1294;61388;-82
2024/02/20 00:43:21;;;;;;;;;;;;;;;18.74;31.28;101701.60;102522;1300;62182;-82
2024/02/20 00:45:47;;;;;;;;;;;;;;;18.73;31.37;101698.05;102540;1295;61410;-80
2024/02/20 00:48:13;;;;;;;;;;;;;;;18.73;31.32;101698.77;102682;1293;61562;-80
2024/02/20 00:50:40;;;;;;;;;;;;;;;18.73;31.41;101700.04;102563;1294;62276;-80
2024/02/20 00:53:05;;;;;;;;;;;;;;;18.72;31.31;101694.86;102661;1294;61581;-82
2024/02/20 00:55:31;;;;;;;;;;;;;;;18.72;31.26;101690.77;102729;1291;62211;-81
2024/02/20 00:57:58;;;;;;;;;;;;;;;18.72;31.38;101689.73;102776;1293;72616;-81
2024/02/20 01:00:24;;;;;;;;;;;;;;;18.72;31.30;101684.55;102735;1291;75176;-81
2024/02/20 01:02:49;;;;;;;;;;;;;;;18.72;31.28;101684.56;102835;1292;61321;-81
2024/02/20 01:05:16;;;;;;;;;;;;;;;18.71;31.49;101682.98;102728;1292;61475;-82
2024/02/20 01:07:42;;;;;;;;;;;;;;;18.71;31.31;101682.11;102766;1291;62689;-81
2024/02/20 01:10:08;;;;;;;;;;;;;;;18.71;31.38;101676.58;102762;1297;62328;-79
2024/02/20 01:12:36;;;;;;;;;;;;;;;18.71;31.42;101676.58;102753;1296;61396;-81
2024/02/20 01:15:02;;;;;;;;;;;;;;;18.71;31.42;101678.73;102706;1291;62745;-81
2024/02/20 01:17:28;;;;;;;;;;;;;;;18.70;31.33;101675.35;102949;1295;62477;-82
2024/02/20 01:19:56;;;;;;;;;;;;;;;18.70;31.32;101675.91;102765;1290;74475;-82
2024/02/20 01:22:21;;;;;;;;;;;;;;;18.70;31.26;101671.64;102671;1291;62338;-81
2024/02/20 01:24:47;;;;;;;;;;;;;;;18.70;31.27;101669.31;102818;1294;61356;-80
2024/02/20 01:27:16;;;;;;;;;;;;;;;18.70;31.36;101669.84;102757;1292;73469;-81
2024/02/20 01:29:45;;;;;;;;;;;;;;;18.70;31.32;101666.66;102720;1297;61456;-82
2024/02/20 01:32:10;;;;;;;;;;;;;;;18.70;31.42;101665.39;102802;1296;61412;-80
2024/02/20 01:34:36;;;;;;;;;;;;;;;18.69;31.33;101661.52;102704;1295;61331;-81
2024/02/20 01:37:02;;;;;;;;;;;;;;;18.69;31.27;101664.02;102736;1292;61395;-80
2024/02/20 01:39:27;;;;;;;;;;;;;;;18.69;31.27;101664.55;102956;1292;61310;-80
2024/02/20 01:41:53;;;;;;;;;;;;;;;18.68;31.33;101659.95;102780;1294;61977;-82
2024/02/20 01:44:19;;;;;;;;;;;;;;;18.68;31.22;101649.26;102836;1291;61750;-82
2024/02/20 01:46:45;;;;;;;;;;;;;;;18.68;31.31;101651.05;102798;1292;61283;-83
2024/02/20 01:49:11;;;;;;;;;;;;;;;18.67;31.28;101644.48;102686;1296;62650;-81
2024/02/20 01:51:36;;;;;;;;;;;;;;;18.67;31.37;101638.42;102690;1291;61347;-81
2024/02/20 01:54:03;;;;;;;;;;;;;;;18.67;31.29;101638.08;102711;1294;61493;-82
2024/02/20 01:56:28;;;;;;;;;;;;;;;18.67;31.25;101631.66;102758;1290;61407;-80
2024/02/20 01:58:54;;;;;;;;;;;;;;;18.66;31.29;101628.30;102837;1294;61407;-81
2024/02/20 02:01:22;;;;;;;;;;;;;;;18.67;31.23;101630.08;102721;1292;61416;-81
2024/02/20 02:03:48;;;;;;;;;;;;;;;18.66;31.25;101628.86;102807;1294;74254;-81
2024/02/20 02:06:14;;;;;;;;;;;;;;;18.65;31.34;101632.08;102802;1291;61477;-83
2024/02/20 02:08:39;;;;;;;;;;;;;;;18.65;31.21;101627.46;102760;1294;61388;-82
2024/02/20 02:11:05;;;;;;;;;;;;;;;18.65;31.31;101630.33;102662;1295;61437;-82
2024/02/20 02:13:30;;;;;;;;;;;;;;;18.65;31.22;101628.90;102755;1296;61411;-82
2024/02/20 02:15:56;;;;;;;;;;;;;;;18.65;31.26;101631.06;102758;1292;74549;-81
2024/02/20 02:18:21;;;;;;;;;;;;;;;18.64;31.13;101627.14;102805;1291;61328;-81
2024/02/20 02:20:49;;;;;;;;;;;;;;;18.64;31.23;101629.48;102715;1291;61462;-80
2024/02/20 02:23:18;;;;;;;;;;;;;;;18.64;31.21;101633.06;102730;1292;73929;-80
2024/02/20 02:25:43;;;;;;;;;;;;;;;18.64;31.26;101628.59;102883;1291;61426;-81
2024/02/20 02:28:09;;;;;;;;;;;;;;;18.64;31.27;101628.07;102843;1294;61410;-81
2024/02/20 02:30:35;;;;;;;;;;;;;;;18.64;31.19;101624.52;102590;1291;61883;-83
2024/02/20 02:33:02;;;;;;;;;;;;;;;18.63;31.15;101623.27;102760;1297;61319;-82
2024/02/20 02:35:28;;;;;;;;;;;;;;;18.63;31.18;101623.13;103052;1291;61568;-81
2024/02/20 02:37:53;;;;;;;;;;;;;;;18.63;31.21;101621.31;102876;1291;61404;-80
2024/02/20 02:40:19;;;;;;;;;;;;;;;18.63;31.22;101621.00;102873;1294;61505;-82
2024/02/20 02:42:44;;;;;;;;;;;;;;;18.62;31.35;101620.84;102824;1292;62238;-81
2024/02/20 02:45:10;;;;;;;;;;;;;;;18.63;31.18;101620.46;102689;1294;61391;-83
2024/02/20 02:47:35;;;;;;;;;;;;;;;18.62;31.19;101617.63;102697;1292;61365;-80
2024/02/20 02:50:01;;;;;;;;;;;;;;;18.62;31.16;101619.97;102671;1291;62092;-82
2024/02/20 02:52:27;;;;;;;;;;;;;;;18.62;31.11;101624.25;102759;1296;61752;-81
2024/02/20 02:54:52;;;;;;;;;;;;;;;18.62;31.23;101622.99;102740;1295;61412;-82
2024/02/20 02:57:18;;;;;;;;;;;;;;;18.62;31.15;101620.88;102987;1291;61387;-81
2024/02/20 02:59:45;;;;;;;;;;;;;;;18.61;31.08;101622.16;102847;1289;62322;-84
2024/02/20 03:02:12;;;;;;;;;;;;;;;18.61;31.08;101621.61;102684;1297;61541;-80
2024/02/20 03:04:38;;;;;;;;;;;;;;;18.61;31.12;101619.84;102740;1291;61491;-80
2024/02/20 03:07:04;;;;;;;;;;;;;;;18.60;31.12;101622.36;102775;1295;61372;-82
2024/02/20 03:09:30;;;;;;;;;;;;;;;18.59;31.09;101623.81;102912;1292;62660;-81
2024/02/20 03:11:56;;;;;;;;;;;;;;;18.59;31.15;101619.19;102934;1292;61408;-81
2024/02/20 03:14:24;;;;;;;;;;;;;;;18.60;31.10;101618.63;102713;1291;62659;-82
2024/02/20 03:16:50;;;;;;;;;;;;;;;18.59;31.17;101618.13;103002;1292;61411;-80
2024/02/20 03:19:16;;;;;;;;;;;;;;;18.59;31.02;101620.08;102928;1294;62679;-82
2024/02/20 03:21:42;;;;;;;;;;;;;;;18.59;31.22;101622.23;103016;1291;61803;-80
2024/02/20 03:24:09;;;;;;;;;;;;;;;18.58;31.21;101622.06;102694;1290;61411;-80
2024/02/20 03:26:35;;;;;;;;;;;;;;;18.58;31.18;101626.52;102925;1291;62325;-84
2024/02/20 03:29:00;;;;;;;;;;;;;;;18.58;31.15;101625.83;102979;1291;61390;-83
2024/02/20 03:31:26;;;;;;;;;;;;;;;18.58;31.11;101621.56;102959;1294;61408;-81
2024/02/20 03:33:55;;;;;;;;;;;;;;;18.58;31.06;101618.73;102930;1290;61320;-81
2024/02/20 03:36:21;;;;;;;;;;;;;;;18.57;31.09;101624.27;102850;1289;61294;-83
2024/02/20 03:38:46;;;;;;;;;;;;;;;18.56;31.02;101621.80;102911;1294;62258;-82
2024/02/20 03:41:13;;;;;;;;;;;;;;;18.56;30.97;101620.92;102882;1294;61363;-80
2024/02/20 03:43:39;;;;;;;;;;;;;;;18.56;31.07;101622.00;102774;1292;61501;-81
2024/02/20 03:46:05;;;;;;;;;;;;;;;18.56;31.15;101621.64;102706;1294;61398;-81
2024/02/20 03:48:32;;;;;;;;;;;;;;;18.56;31.06;101623.64;103004;1294;61325;-80
2024/02/20 03:50:58;;;;;;;;;;;;;;;18.56;31.05;101620.41;102916;1294;62645;-80
2024/02/20 03:53:24;;;;;;;;;;;;;;;18.55;31.01;101618.31;102737;1292;61496;-82
2024/02/20 03:55:50;;;;;;;;;;;;;;;18.56;31.09;101620.95;102799;1294;61397;-80
2024/02/20 03:58:15;;;;;;;;;;;;;;;18.55;30.99;101615.83;102944;1294;62486;-81
2024/02/20 04:00:41;;;;;;;;;;;;;;;18.55;30.97;101617.62;102857;1291;72595;-81
2024/02/20 04:03:07;;;;;;;;;;;;;;;18.54;31.00;101620.13;102757;1295;62590;-81
2024/02/20 04:05:33;;;;;;;;;;;;;;;18.54;31.01;101620.33;102939;1295;62010;-81
2024/02/20 04:07:58;;;;;;;;;;;;;;;18.54;30.99;101620.85;102682;1297;61427;-81
2024/02/20 04:10:24;;;;;;;;;;;;;;;18.55;31.06;101624.05;102658;1292;61456;-82
2024/02/20 04:12:50;;;;;;;;;;;;;;;18.54;31.01;101621.04;102298;1292;690353;-81
2024/02/20 04:15:15;;;;;;;;;;;;;;;18.54;30.99;101623.18;102660;1297;61581;-81
2024/02/20 04:17:41;;;;;;;;;;;;;;;18.54;31.03;101619.64;102738;1291;62508;-81
2024/02/20 04:20:08;;;;;;;;;;;;;;;18.53;31.03;101621.08;102707;1295;62581;-81
2024/02/20 04:22:37;;;;;;;;;;;;;;;18.53;30.97;101622.88;102722;1291;61397;-83
2024/02/20 04:25:05;;;;;;;;;;;;;;;18.53;31.10;101620.20;102721;1296;75261;-82
2024/02/20 04:27:31;;;;;;;;;;;;;;;18.52;30.98;101622.00;102678;1300;61390;-82
2024/02/20 04:29:56;;;;;;;;;;;;;;;18.52;30.93;101619.15;102574;1294;62521;-81
2024/02/20 04:32:22;;;;;;;;;;;;;;;18.52;31.00;101615.77;102513;1295;61461;-80
2024/02/20 04:34:48;;;;;;;;;;;;;;;18.52;30.98;101613.98;102576;1298;61372;-80
2024/02/20 04:37:17;;;;;;;;;;;;;;;18.52;30.96;101615.95;102533;1296;61798;-82
2024/02/20 04:39:45;;;;;;;;;;;;;;;18.52;31.00;101616.16;102547;1300;61491;-81
2024/02/20 04:42:11;;;;;;;;;;;;;;;18.51;31.06;101614.04;102501;1299;72332;-80
2024/02/20 04:44:39;;;;;;;;;;;;;;;18.51;31.00;101610.83;102450;1300;61904;-81
2024/02/20 04:47:06;;;;;;;;;;;;;;;18.51;31.03;101610.33;102626;1293;61411;-80
2024/02/20 04:49:31;;;;;;;;;;;;;;;18.51;30.93;101611.56;102929;1297;61466;-80
2024/02/20 04:51:57;;;;;;;;;;;;;;;18.51;30.96;101607.30;102430;1299;61401;-81
2024/02/20 04:54:25;;;;;;;;;;;;;;;18.51;31.01;101610.32;102288;1294;61464;-81
2024/02/20 04:56:50;;;;;;;;;;;;;;;18.50;30.99;101614.09;102604;1294;61360;-81
2024/02/20 04:59:16;;;;;;;;;;;;;;;18.50;30.95;101610.89;102397;1294;61587;-80
2024/02/20 05:01:42;;;;;;;;;;;;;;;18.50;31.00;101613.39;102429;1294;61461;-81
2024/02/20 05:04:07;;;;;;;;;;;;;;;18.50;30.98;101613.39;102606;1300;61524;-80
2024/02/20 05:06:33;;;;;;;;;;;;;;;18.50;31.02;101613.04;102778;1299;61965;-80
2024/02/20 05:09:01;;;;;;;;;;;;;;;18.50;31.03;101610.72;103169;1291;61224;-80
2024/02/20 05:11:27;;;;;;;;;;;;;;;18.50;30.91;101615.16;103191;1291;61291;-80
2024/02/20 05:13:52;;;;;;;;;;;;;;;18.50;30.96;101617.86;103197;1293;61390;-81
2024/02/20 05:16:18;;;;;;;;;;;;;;;18.50;30.95;101624.42;103219;1291;61416;-79
2024/02/20 05:18:43;;;;;;;;;;;;;;;18.50;30.95;101626.74;103067;1297;61424;-82
2024/02/20 05:21:09;;;;;;;;;;;;;;;18.51;31.03;101629.77;103020;1297;61494;-81
2024/02/20 05:23:34;;;;;;;;;;;;;;;18.51;31.00;101630.29;102680;1291;62259;-83
2024/02/20 05:26:00;;;;;;;;;;;;;;;18.51;31.01;101632.59;102695;1291;61411;-81
2024/02/20 05:28:27;;;;;;;;;;;;;;;18.51;31.01;101635.98;102652;1296;62536;-82
2024/02/20 05:30:53;;;;;;;;;;;;;;;18.51;30.91;101640.98;102684;1290;61334;-80
2024/02/20 05:33:20;;;;;;;;;;;;;;;18.50;30.84;101644.22;102747;1293;61498;-80
2024/02/20 05:35:46;;;;;;;;;;;;;;;18.50;30.86;101647.78;102747;1292;61842;-80
2024/02/20 05:38:15;;;;;;;;;;;;;;;18.49;30.86;101654.94;102657;1297;61410;-82
2024/02/20 05:40:40;;;;;;;;;;;;;;;18.49;30.80;101652.27;102693;1296;62438;-82
2024/02/20 05:43:06;;;;;;;;;;;;;;;18.50;30.79;101656.36;102751;1296;61414;-81
2024/02/20 05:45:33;;;;;;;;;;;;;;;18.49;30.77;101656.76;102713;1295;61452;-82
2024/02/20 05:47:59;;;;;;;;;;;;;;;18.49;30.67;101660.68;102767;1296;62830;-81
2024/02/20 05:50:24;;;;;;;;;;;;;;;18.49;30.73;101664.59;102754;1291;61446;-80
2024/02/20 05:52:50;;;;;;;;;;;;;;;18.48;30.67;101667.13;102710;1291;61458;-81
2024/02/20 05:55:16;;;;;;;;;;;;;;;18.48;30.67;101668.73;102723;1295;61338;-83
2024/02/20 05:57:42;;;;;;;;;;;;;;;18.48;30.71;101671.25;102682;1291;73544;-83
2024/02/20 06:00:12;;;;;;;;;;;;;;;18.47;30.69;101672.16;102786;1293;73570;-82
2024/02/20 06:02:39;;;;;;;;;;;;;;;18.47;30.66;101680.73;102706;1295;61308;-81
2024/02/20 06:05:07;;;;;;;;;;;;;;;18.48;30.61;101672.33;102857;1296;61425;-82
2024/02/20 06:07:32;;;;;;;;;;;;;;;18.48;30.55;101673.73;102695;1296;72504;-81
2024/02/20 06:09:58;;;;;;;;;;;;;;;18.48;30.60;101680.30;102682;1291;62485;-80
2024/02/20 06:12:24;;;;;;;;;;;;;;;18.49;30.65;101682.05;102802;1291;61429;-80
2024/02/20 06:14:49;;;;;;;;;;;;;;;18.50;30.54;101681.82;102744;1293;61405;-81
2024/02/20 06:17:15;;;;;;;;;;;;;;;18.51;30.56;101685.36;102712;1297;62373;-81
2024/02/20 06:19:40;;;;;;;;;;;;;;;18.52;30.52;101694.94;102699;1295;72469;-82
2024/02/20 06:22:06;;;;;;;;;;;;;;;18.54;30.57;101702.34;102719;1294;61838;-82
2024/02/20 06:24:32;;;;;;;;;;;;;;;18.55;30.51;101702.09;102727;1293;62509;-82
2024/02/20 06:26:58;;;;;;;;;;;;;;;18.57;30.53;101705.03;102674;1292;61778;-80
2024/02/20 06:29:24;;;;;;;;;;;;;;;18.60;30.53;101711.16;102713;1291;61498;-80
2024/02/20 06:31:51;;;;;;;;;;;;;;;18.62;30.58;101708.23;102725;1291;61919;-79
2024/02/20 06:34:17;;;;;;;;;;;;;;;18.63;30.57;101708.15;102930;1293;61858;-80
2024/02/20 06:36:44;;;;;;;;;;;;;;;18.64;30.47;101709.16;102603;1291;62007;-80
2024/02/20 06:39:10;;;;;;;;;;;;;;;18.65;30.47;101712.55;102616;1297;61481;-81
2024/02/20 06:41:35;;;;;;;;;;;;;;;18.65;30.47;101715.57;102789;1294;62174;-81
2024/02/20 06:44:10;;;;;;;;;;;;;;;18.65;30.50;101718.77;102717;1292;61857;-81
2024/02/20 06:46:42;;;;;;;;;;;;;;;18.66;30.65;101718.89;102686;1295;62387;-81
2024/02/20 06:49:08;;;;;;;;;;;;;;;18.66;30.59;101720.50;102681;1296;73563;-81
2024/02/20 06:51:34;;;;;;;;;;;;;;;18.67;30.53;101717.63;102628;1297;62200;-80
2024/02/20 06:53:59;;;;;;;;;;;;;;;18.67;30.63;101719.05;102624;1297;61332;-80
2024/02/20 06:56:25;;;;;;;;;;;;;;;18.66;30.56;101720.84;102789;1291;62323;-80
2024/02/20 06:58:50;;;;;;;;;;;;;;;18.67;30.61;101724.58;103171;1293;61423;-79
2024/02/20 07:01:16;;;;;;;;;;;;;;;18.68;30.72;101726.82;102986;1291;72528;-80
2024/02/20 07:03:42;;;;;;;;;;;;;;;18.69;30.77;101724.83;103073;1299;61422;-79
2024/02/20 07:06:07;;;;;;;;;;;;;;;18.68;30.94;101728.42;103113;1291;61385;-78
2024/02/20 07:08:33;;;;;;;;;;;;;;;18.67;31.32;101726.88;102753;1297;61338;-80
2024/02/20 07:10:58;;;;;;;;;;;;;;;18.66;31.51;101726.02;103189;1297;61470;-78
2024/02/20 07:13:24;;;;;;;;;;;;;;;18.65;31.82;101726.62;103434;1293;61320;-79
2024/02/20 07:15:49;;;;;;;;;;;;;;;18.63;32.10;101725.10;103137;1295;61401;-80
2024/02/20 07:18:15;;;;;;;;;;;;;;;18.62;32.27;101725.34;103152;1297;62850;-79
2024/02/20 07:20:40;;;;;;;;;;;;;;;18.60;32.38;101723.98;103171;1291;61335;-80
2024/02/20 07:23:06;;;;;;;;;;;;;;;18.59;32.38;101725.08;102893;1295;62597;-80
2024/02/20 07:25:31;;;;;;;;;;;;;;;18.58;32.50;101720.30;103019;1295;61386;-79
2024/02/20 07:27:57;;;;;;;;;;;;;;;18.58;32.51;101716.26;103190;1298;62634;-80
2024/02/20 07:30:22;;;;;;;;;;;;;;;18.57;32.54;101717.52;103126;1294;61491;-79
2024/02/20 07:32:48;;;;;;;;;;;;;;;18.56;32.57;101719.16;102986;1291;61365;-80
2024/02/20 07:35:14;;;;;;;;;;;;;;;18.55;32.68;101716.88;102812;1294;61449;-82
2024/02/20 07:37:39;;;;;;;;;;;;;;;18.54;32.75;101716.94;102882;1293;61405;-80
2024/02/20 07:40:06;;;;;;;;;;;;;;;18.54;32.57;101712.16;102833;1295;74200;-81
2024/02/20 07:42:31;;;;;;;;;;;;;;;18.53;32.39;101712.89;102815;1292;61462;-82
2024/02/20 07:44:57;;;;;;;;;;;;;;;18.52;32.35;101708.48;103003;1293;62571;-81
2024/02/20 07:47:23;;;;;;;;;;;;;;;18.52;32.26;101706.89;103105;1298;61298;-80
2024/02/20 07:49:49;;;;;;;;;;;;;;;18.53;32.18;101704.71;102858;1294;61979;-80
2024/02/20 07:52:15;;;;;;;;;;;;;;;18.53;32.37;101701.12;102825;1296;61445;-80
2024/02/20 07:54:40;;;;;;;;;;;;;;;18.54;32.30;101700.37;102898;1295;61930;-84
2024/02/20 07:57:06;;;;;;;;;;;;;;;18.55;32.23;101697.48;102834;1296;61385;-81
2024/02/20 07:59:31;;;;;;;;;;;;;;;18.55;32.34;101696.39;102914;1293;61398;-81
2024/02/20 08:02:02;;;;;;;;;;;;;;;18.56;32.36;101693.69;102671;1297;61392;-81
2024/02/20 08:04:28;;;;;;;;;;;;;;;18.56;32.43;101690.27;102779;1296;62493;-81
2024/02/20 08:06:57;;;;;;;;;;;;;;;18.57;32.44;101682.04;102892;1295;61288;-81
2024/02/20 08:09:22;;;;;;;;;;;;;;;18.58;32.43;101687.85;102761;1291;72560;-81
2024/02/20 08:11:49;;;;;;;;;;;;;;;18.58;32.37;101684.27;102794;1293;61472;-80
2024/02/20 08:14:15;;;;;;;;;;;;;;;18.59;32.38;101680.00;102874;1296;62213;-82
2024/02/20 08:16:42;;;;;;;;;;;;;;;18.59;32.42;101683.36;102905;1298;61319;-80
2024/02/20 08:19:08;;;;;;;;;;;;;;;18.60;32.45;101686.90;102750;1295;61416;-80
2024/02/20 08:21:33;;;;;;;;;;;;;;;18.62;32.41;101681.13;102870;1295;61389;-80
2024/02/20 08:24:00;;;;;;;;;;;;;;;18.62;32.44;101680.92;103059;1297;61410;-80
2024/02/20 08:26:26;;;;;;;;;;;;;;;18.63;32.47;101679.27;102705;1293;61634;-82
2024/02/20 08:28:52;;;;;;;;;;;;;;;18.65;32.53;101685.80;102717;1299;62303;-80
2024/02/20 08:31:18;;;;;;;;;;;;;;;18.66;32.48;101684.48;102807;1297;62076;-81
2024/02/20 08:33:44;;;;;;;;;;;;;;;18.67;32.51;101683.73;102720;1296;61614;-80
2024/02/20 08:36:10;;;;;;;;;;;;;;;18.69;32.63;101682.38;102802;1295;61461;-81
2024/02/20 08:38:36;;;;;;;;;;;;;;;18.71;32.60;101683.70;102897;1295;61307;-81
2024/02/20 08:41:04;;;;;;;;;;;;;;;18.72;32.75;101680.25;102640;1293;62346;-80
2024/02/20 08:43:32;;;;;;;;;;;;;;;18.73;32.59;101682.69;102803;1293;74298;-80
2024/02/20 08:45:58;;;;;;;;;;;;;;;18.75;32.74;101679.23;102825;1297;61455;-80
2024/02/20 08:48:24;;;;;;;;;;;;;;;18.76;32.67;101681.15;102701;1297;61478;-83
2024/02/20 08:50:51;;;;;;;;;;;;;;;18.78;32.68;101681.80;102765;1295;61454;-79
2024/02/20 08:53:16;;;;;;;;;;;;;;;18.79;32.71;101682.63;103074;1295;63330;-80
2024/02/20 08:55:42;;;;;;;;;;;;;;;18.80;32.53;101683.45;102784;1295;61778;-81
2024/02/20 08:58:07;;;;;;;;;;;;;;;18.82;32.63;101683.21;102856;1295;61936;-80
2024/02/20 09:00:36;;;;;;;;;;;;;;;18.82;32.61;101680.33;102864;1293;61429;-80
2024/02/20 09:03:01;;;;;;;;;;;;;;;18.83;32.54;101687.40;102696;1291;72386;-81
2024/02/20 09:05:27;;;;;;;;;;;;;;;18.84;32.69;101684.16;102924;1292;62532;-80
2024/02/20 09:07:52;;;;;;;;;;;;;;;18.86;32.58;101683.55;102972;1304;61377;-81
2024/02/20 09:10:21;;;;;;;;;;;;;;;18.88;32.51;101680.79;103006;1290;61308;-79
2024/02/20 09:12:47;;;;;;;;;;;;;;;18.91;32.49;101682.61;102816;1300;61432;-81
2024/02/20 09:15:12;;;;;;;;;;;;;;;18.94;32.41;101679.27;103066;1291;62293;-80
2024/02/20 09:17:38;;;;;;;;;;;;;;;18.96;32.34;101679.88;102762;1290;61391;-79
2024/02/20 09:20:06;;;;;;;;;;;;;;;18.98;32.44;101678.89;102735;1291;62648;-81
2024/02/20 09:22:33;;;;;;;;;;;;;;;19.00;32.25;101677.16;103094;1294;62242;-80
2024/02/20 09:24:59;;;;;;;;;;;;;;;19.01;32.16;101678.39;102653;1295;61788;-79
2024/02/20 09:27:24;;;;;;;;;;;;;;;19.03;32.08;101676.70;102779;1295;61376;-82
2024/02/20 09:29:50;;;;;;;;;;;;;;;19.05;32.04;101672.14;103118;1302;61493;-80
2024/02/20 09:32:16;;;;;;;;;;;;;;;19.06;31.98;101671.03;102814;1289;61407;-79
2024/02/20 09:34:43;;;;;;;;;;;;;;;19.07;31.79;101665.80;102788;1294;72517;-81
2024/02/20 09:37:10;;;;;;;;;;;;;;;19.08;31.90;101666.44;102895;1294;74584;-79
2024/02/20 09:39:36;;;;;;;;;;;;;;;19.11;31.88;101661.87;102919;1292;61465;-80
2024/02/20 09:42:05;;;;;;;;;;;;;;;19.12;31.78;101658.80;102948;1297;61325;-80
2024/02/20 09:44:32;;;;;;;;;;;;;;;19.13;31.82;101657.67;102866;1291;72544;-80
2024/02/20 09:46:58;;;;;;;;;;;;;;;19.14;31.82;101656.20;102849;1294;74295;-80
2024/02/20 09:49:23;;;;;;;;;;;;;;;19.15;31.55;101653.09;102774;1295;62447;-79
2024/02/20 09:51:49;;;;;;;;;;;;;;;19.16;31.73;101650.19;102849;1294;61387;-79
2024/02/20 09:54:15;;;;;;;;;;;;;;;19.17;31.49;101649.08;102847;1290;62118;-82
2024/02/20 09:56:42;;;;;;;;;;;;;;;19.17;31.61;101647.63;102714;1296;61356;-80
2024/02/20 09:59:08;;;;;;;;;;;;;;;19.18;31.56;101650.46;103109;1289;62622;-80
2024/02/20 10:01:34;;;;;;;;;;;;;;;19.18;31.56;101647.05;102923;1289;61425;-79
2024/02/20 10:04:01;;;;;;;;;;;;;;;19.19;31.51;101644.14;103050;1294;62337;-79
2024/02/20 10:06:27;;;;;;;;;;;;;;;19.20;31.48;101639.99;102980;1294;73423;-80
2024/02/20 10:08:54;;;;;;;;;;;;;;;19.20;31.39;101640.69;103336;1290;61398;-80
2024/02/20 10:11:20;;;;;;;;;;;;;;;19.20;31.44;101633.04;103337;1291;61822;-80
2024/02/20 10:13:46;;;;;;;;;;;;;;;19.19;31.35;101630.76;102864;1291;62554;-80
2024/02/20 10:16:14;;;;;;;;;;;;;;;19.19;31.39;101628.11;102818;1296;61522;-79
2024/02/20 10:18:40;;;;;;;;;;;;;;;19.17;31.35;101625.67;103049;1290;74386;-80
2024/02/20 10:21:07;;;;;;;;;;;;;;;19.17;31.17;101620.34;103038;1294;61353;-80
2024/02/20 10:23:33;;;;;;;;;;;;;;;19.17;31.33;101615.52;102978;1294;61254;-81
2024/02/20 10:25:59;;;;;;;;;;;;;;;19.16;31.26;101614.67;102670;1291;61427;-80
2024/02/20 10:28:25;;;;;;;;;;;;;;;19.16;31.22;101611.65;102883;1294;61429;-80
2024/02/20 10:30:51;;;;;;;;;;;;;;;19.15;31.22;101610.10;102932;1291;62600;-80
2024/02/20 10:33:17;;;;;;;;;;;;;;;19.14;31.32;101607.11;102898;1295;61366;-81
2024/02/20 10:35:42;;;;;;;;;;;;;;;19.14;31.18;101604.60;103244;1291;61450;-81
2024/02/20 10:38:11;;;;;;;;;;;;;;;19.14;31.22;101598.73;102857;1291;61387;-81
2024/02/20 10:40:37;;;;;;;;;;;;;;;19.14;31.17;101603.00;102964;1290;74301;-80
2024/02/20 10:43:03;;;;;;;;;;;;;;;19.15;31.21;101597.80;103089;1290;61458;-80
2024/02/20 10:45:29;;;;;;;;;;;;;;;19.14;31.13;101595.50;102980;1291;61473;-80
2024/02/20 10:47:56;;;;;;;;;;;;;;;19.15;31.02;101591.90;103029;1291;61377;-80
2024/02/20 10:50:22;;;;;;;;;;;;;;;19.15;31.08;101584.23;102928;1289;61392;-80
2024/02/20 10:52:49;;;;;;;;;;;;;;;19.15;31.06;101584.04;102954;1289;61951;-80
2024/02/20 10:55:14;;;;;;;;;;;;;;;19.15;31.14;101578.50;102746;1294;61408;-79
2024/02/20 10:57:41;;;;;;;;;;;;;;;19.15;30.94;101577.96;102930;1291;62412;-80
2024/02/20 11:00:11;;;;;;;;;;;;;;;19.15;31.00;101572.96;102747;1294;61358;-80
2024/02/20 11:02:38;;;;;;;;;;;;;;;19.16;31.00;101564.00;103007;1290;61284;-81
2024/02/20 11:05:06;;;;;;;;;;;;;;;19.16;31.00;101562.73;103267;1291;61382;-81
2024/02/20 11:07:32;;;;;;;;;;;;;;;19.17;31.01;101555.55;103076;1291;72625;-82
2024/02/20 11:10:05;;;;;;;;;;;;;;;19.18;30.91;101550.84;102910;1289;61795;-80
2024/02/20 11:12:31;;;;;;;;;;;;;;;19.20;30.94;101545.05;102993;1291;61327;-80
2024/02/20 11:15:11;;;;;;;;;;;;;;;19.22;31.06;101537.47;102678;1291;61394;-81
2024/02/20 11:17:36;;;;;;;;;;;;;;;19.23;31.01;101533.66;102988;1293;72286;-82
2024/02/20 11:20:07;;;;;;;;;;;;;;;19.25;31.03;101532.12;102894;1290;62404;-80
2024/02/20 11:22:33;;;;;;;;;;;;;;;19.27;31.17;101534.36;102906;1292;61385;-82
2024/02/20 11:25:07;;;;;;;;;;;;;;;19.28;31.12;101532.16;103009;1290;61366;-80
2024/02/20 11:27:51;;;;;;;;;;;;;;;19.30;31.10;101529.77;102659;1298;71218;-80
2024/02/20 11:30:18;;;;;;;;;;;;;;;19.31;31.05;101530.58;102903;1294;74380;-80
2024/02/20 11:32:44;;;;;;;;;;;;;;;19.32;31.09;101525.17;102865;1289;61394;-82
2024/02/20 11:35:24;;;;;;;;;;;;;;;19.34;31.14;101528.84;102839;1289;61389;-80
2024/02/20 11:37:51;;;;;;;;;;;;;;;19.34;31.16;101525.23;102955;1291;72352;-80
2024/02/20 11:40:23;;;;;;;;;;;;;;;19.35;31.12;101525.56;102763;1296;62890;-81
2024/02/20 11:42:49;;;;;;;;;;;;;;;19.36;31.07;101521.03;102932;1289;61845;-80
2024/02/20 11:45:19;;;;;;;;;;;;;;;19.37;31.19;101526.70;102762;1291;61408;-81
2024/02/20 11:47:56;;;;;;;;;;;;;;;19.37;31.08;101522.60;103011;1294;72555;-82
2024/02/20 11:50:21;;;;;;;;;;;;;;;19.37;31.07;101524.19;102729;1289;75272;-80
2024/02/20 11:53:07;;;;;;;;;;;;;;;19.37;30.93;101524.20;102722;1290;61423;-81
2024/02/20 11:55:33;;;;;;;;;;;;;;;19.36;31.10;101523.73;102952;1290;61388;-82
2024/02/20 11:58:00;;;;;;;;;;;;;;;19.35;31.14;101523.56;102883;1292;72588;-79
2024/02/20 12:00:27;;;;;;;;;;;;;;;19.35;31.05;101518.78;102861;1295;61808;-79
2024/02/20 12:02:53;;;;;;;;;;;;;;;19.34;31.09;101516.13;102847;1290;62286;-81
2024/02/20 12:05:25;;;;;;;;;;;;;;;19.33;31.08;101513.70;102837;1294;61397;-80
2024/02/20 12:07:52;;;;;;;;;;;;;;;19.32;31.00;101512.48;103093;1297;72542;-81
2024/02/20 12:10:18;;;;;;;;;;;;;;;19.31;31.11;101512.70;102705;1295;61423;-80
2024/02/20 12:12:44;;;;;;;;;;;;;;;19.30;31.10;101511.69;102968;1292;61420;-80
2024/02/20 12:15:11;;;;;;;;;;;;;;;19.30;31.04;101509.95;102949;1289;61885;-80
2024/02/20 12:17:44;;;;;;;;;;;;;;;19.29;31.09;101503.05;102722;1291;61416;-83
2024/02/20 12:20:11;;;;;;;;;;;;;;;19.27;31.14;101499.73;102885;1290;75337;-81
2024/02/20 12:22:38;;;;;;;;;;;;;;;19.26;31.14;101506.54;102861;1293;61975;-82